Tiempo atmosférico en la estación meteorológica de Cabrales, Asturias (458 m.)



Fecha
DESCASC
Temp. máxima en grados centígrados (hora)
DESCASC
Temp. mínima en grados centígrados (hora)
DESCASC
Temp. media en grados centígrados
DESCASC
Racha de viento máxima en m/sg (hora)
DESCASC
Velocidad máxima media en intervalos de 10 minutos(hora)
DESCASC
Precipitaciones diarias en mm
DESCASC
Precipitaciones de 00:00 a 06:00 en mm
DESCASC
Precipitaciones de 06:00 a 12:00 en mm
DESCASC
Precipitaciones de 12:00 a 18:00 en mm
DESCASC
Precipitaciones de 18:00 a 24:00 en mm
DESCASC
28-02-2021 12.5 (13:20) 2.5 (08:00) 7.5 9.72 (19:50) 5.28 (14:40) 0 0 0 0 0
27-02-2021 10.5 (15:20) 4.6 (23:59) 7.5 9.72 (13:00) 6.11 (12:30) 0 0 0 0 0
26-02-2021 9.9 (15:00) 8.5 (08:00) 9.2 7.5 (12:10) 4.44 (11:30) 0.4 0.4 0 0 0
25-02-2021 16.4 (00:40) 8.5 (00:00) 12.4 13.61 (01:00) 8.61 (02:50) 1 0 0 0 1
24-02-2021 21.3 (14:10) 10.6 (00:00) 15.9 26.67 (10:10) 16.11 (10:10) 0 0 0 0 0
23-02-2021 20.3 (16:00) 5.1 (00:00) 12.7 17.5 (13:40) 9.44 (13:40) 0 0 0 0 0
22-02-2021 13.9 (16:10) 4.2 (00:00) 9 8.33 (06:10) 5.28 (20:10) 1.6 1.6 0 0 0
21-02-2021 11.7 (00:00) 3.9 (00:00) 7.8 14.44 (08:10) 10.28 (08:10) 13.2 0 0.2 4.8 8.2
20-02-2021 19.9 (13:30) 11.7 (00:00) 15.8 35.56 (10:50) 15 (01:00) 0 0 0 0 0
19-02-2021 16.8 (15:20) 5.1 (00:00) 10.9 31.67 (21:00) 17.78 (21:10) 0 0 0 0 0
18-02-2021 16.3 (02:50) 5.4 (00:00) 10.8 27.22 (04:10) 13.61 (05:00) 1.8 0 0.6 1 0.2
17-02-2021 16.4 (13:40) 5.6 (00:00) 11 21.11 (21:40) 9.72 (22:00) 0 0 0 0 0
16-02-2021 18.9 (00:50) 7.4 (00:00) 13.1 30.83 (04:50) 19.72 (02:00) 0 0 0 0 0
15-02-2021 20.5 (19:10) 11.5 (00:00) 16 23.61 (20:50) 15.83 (22:40) 0 0 0 0 0
14-02-2021 18.7 (16:50) 6.5 (00:00) 12.6 13.61 (22:30) 5.83 (22:50) 0 0 0 0 0
13-02-2021 14.6 (17:20) 4.8 (00:00) 9.7 5.56 (20:10) 4.17 (18:30) 1 0 1 0 0
12-02-2021 11.8 (14:20) 6.3 (00:00) 9.1 13.61 (07:10) 8.89 (07:00) 15.8 8.8 6.8 0.2 0
11-02-2021 14.3 (16:10) 6.5 (00:00) 10.4 8.89 (13:40) 6.39 (13:40) 1.2 0 0.2 1 0
10-02-2021 12.9 (15:20) 4.8 (00:00) 8.8 18.61 (06:10) 10 (11:50) 0.6 0.6 0 0 0
09-02-2021 14 (16:50) 6 (00:00) 10 30 (06:20) 17.78 (06:20) 1.2 0.2 1 0 0
08-02-2021 13.1 (14:20) 5.9 (00:00) 9.5 8.89 (18:00) 6.11 (18:00) 0.6 0.2 0 0.2 0.2
07-02-2021 8 (13:30) 1.8 (00:00) 4.9 4.44 (16:40) 3.33 (18:10) 2.6 0 0 2.2 0.4
06-02-2021 7.7 (00:00) 3.4 (00:00) 5.5 8.61 (16:30) 6.11 (18:40) 29.6 10.8 7.2 9.2 2.4
05-02-2021 8.4 (13:10) 7.1 (00:00) 7.7 3.06 (00:10) 2.5 (00:10) 21.6 0.2 4.2 2.6 14.6
04-02-2021 12.5 (04:40) 7.9 (00:00) 10.2 13.33 (04:40) 7.78 (04:40) 0 0 0 0 0
03-02-2021 17.8 (14:30) 8.3 (00:00) 13 28.89 (01:00) 14.17 (00:50) 0.4 0.2 0 0.2 0
02-02-2021 18 (16:50) 9.2 (00:00) 13.6 25.28 (23:59) 12.78 (21:40) 0.8 0 0 0.2 0.6
01-02-2021 17.6 (13:50) 10.9 (00:00) 14.3 28.61 (00:10) 17.78 (00:10) 0 0 0 0 0

Gráficas

Temp. máximas Temp. mínimas Temp. medias Precipitaciones Rachas de viento máximas Velocidades máximas media en intervalos de 10 minutos

Datos horarios

Fecha y hora oficial Temperatura (ºC) Velocidad del viento (km/h) Dirección del viento Racha (km/h) Dirección de racha Precipitación (mm) Presión (hPa) Tendencia (hPa) Humedad (%)
2021-03-02 23:00:00 9.7 8 Este 22 Este 0 -- -- 90
2021-03-02 22:00:00 9.8 9 Sudeste 16 Sudeste 0 -- -- 94
2021-03-02 21:00:00 9.7 3 Sur 15 Oeste 0 -- -- 94
2021-03-02 20:00:00 9.7 9 Oeste 16 Oeste 0 -- -- 94
2021-03-02 19:00:00 10.1 13 Oeste 26 Oeste 0 -- -- 93
2021-03-02 18:00:00 10.5 19 Oeste 31 Oeste 0 -- -- 92
2021-03-02 17:00:00 13.4 16 Sudoeste 27 Este 0 -- -- 77
2021-03-02 16:00:00 16.7 9 Este 20 Este 0 -- -- 57
2021-03-02 15:00:00 15.8 9 Sudeste 18 Sudeste 0 -- -- 59
2021-03-02 14:00:00 16.1 13 Sudoeste 42 Oeste 0 -- -- 57
2021-03-02 13:00:00 15.2 10 Sudoeste 32 Sudoeste 0 -- -- 59
2021-03-02 12:00:00 13.6 8 Sudeste 14 Sudeste 0 -- -- 67
2021-03-02 11:00:00 11.7 10 Sudeste 23 Sur 0 -- -- 72
2021-03-02 10:00:00 10.7 7 Este 17 Noroeste 0 -- -- 75
2021-03-02 09:00:00 10.2 6 Sur 21 Sudeste 0 -- -- 73
2021-03-02 08:00:00 9.7 16 Sudeste 25 Sur 0 -- -- 76
2021-03-02 07:00:00 9.9 10 Sudeste 20 Sur 0 -- -- 75
2021-03-02 06:00:00 9.5 7 Este 13 Este 0 -- -- 76
2021-03-02 05:00:00 9.5 6 Norte 18 Sudeste 0 -- -- 77
2021-03-02 04:00:00 10.5 15 Sudeste 18 Sudeste 0 -- -- 72
2021-03-02 03:00:00 10.2 11 Sudeste 18 Sudeste 0 -- -- 73
2021-03-02 02:00:00 9.8 4 Este 10 Sudoeste 0 -- -- 75
2021-03-02 01:00:00 10 6 Este 11 Sur 0 -- -- 75
2021-03-02 00:00:00 10.2 9 Sudeste 13 Sudeste 0 -- -- 74
2021-03-01 23:00:00 10.6 8 Este 13 Sudeste 0 -- -- 72
2021-03-01 22:00:00 10.9 8 Este 12 Sudoeste 0 -- -- 71
2021-03-01 21:00:00 11.2 8 Sudoeste 11 Sudoeste 0 -- -- 68
2021-03-01 20:00:00 12.1 3 Sudeste 18 Sudeste 0 -- -- 65
2021-03-01 19:00:00 12.9 5 Sudeste 15 Sudeste 0 -- -- 63
2021-03-01 18:00:00 14.3 4 Sur 11 Este 0 -- -- 57
2021-03-01 17:00:00 16.4 6 Sudeste 12 Sur 0 -- -- 54
2021-03-01 16:00:00 15.9 6 Sudeste 13 Sudeste 0 -- -- 59
2021-03-01 15:00:00 14.4 4 Sur 11 Sur 0 -- -- 61
2021-03-01 14:00:00 13.2 0 Calma 15 Sudeste 0 -- -- 71
2021-03-01 13:00:00 12.8 3 Sur 12 Sur 0 -- -- 66
2021-03-01 12:00:00 11.8 5 Sudeste 20 Sudeste 0 -- -- 70
2021-03-01 11:00:00 11.1 13 Sudeste 21 Sudeste 0 -- -- 74
2021-03-01 10:00:00 9.6 8 Sudeste 24 Este 0 -- -- 81
2021-03-01 09:00:00 7.5 23 Sudeste 26 Este 0 -- -- 89
2021-03-01 08:00:00 7.2 3 Oeste 15 Oeste 0 -- -- 85
2021-03-01 07:00:00 5.9 6 Sudeste 22 Este 0 -- -- 94
2021-03-01 06:00:00 5.3 11 Este 29 Sur 0.4 -- -- 99
2021-03-01 05:00:00 4.3 5 Este 9 Sudoeste 0 -- -- 100
2021-03-01 04:00:00 4.8 2 Noroeste 23 Sudoeste 0 -- -- 100
2021-03-01 03:00:00 5 9 Sudeste 11 Sudeste 0 -- -- 99
2021-03-01 02:00:00 4.9 4 Nordeste 9 Nordeste 0 -- -- 99
2021-03-01 01:00:00 5.7 3 Sudoeste 6 Sudoeste 0 -- -- 99
2021-03-01 00:00:00 6.1 5 Este 6 Este 0 -- -- 96
2021-02-28 23:00:00 6.7 2 Sur 6 Nordeste 0 -- -- 96
2021-02-28 22:00:00 6.9 0 Calma 13 Sudeste 0 -- -- 95
2021-02-28 21:00:00 7.3 7 Este 13 Este 0 -- -- 94
2021-02-28 20:00:00 7 9 Este 35 Sudeste 0 -- -- 94
2021-02-28 19:00:00 8 14 Este 31 Este 0 -- -- 89
2021-02-28 18:00:00 8.9 13 Este 27 Este 0 -- -- 85
2021-02-28 17:00:00 9.3 12 Este 32 Este 0 -- -- 82
2021-02-28 16:00:00 10.5 15 Este 28 Sudeste 0 -- -- 79
2021-02-28 15:00:00 10 14 Este 27 Este 0 -- -- 77
2021-02-28 14:00:00 10.3 17 Este 28 Sudeste 0 -- -- 74
2021-02-28 13:00:00 12.1 6 Sudeste 17 Sudeste 0 -- -- 66
2021-02-28 12:00:00 10.4 6 Sudeste 19 Sudeste 0 -- -- 68
2021-02-28 11:00:00 7.7 7 Este 14 Este 0 -- -- 85
2021-02-28 10:00:00 4.5 2 Sudoeste 5 Este 0 -- -- 99
2021-02-28 09:00:00 3.4 4 Este 5 Este 0 -- -- 100
2021-02-28 08:00:00 2.5 4 Este 5 Este 0 -- -- 98
2021-02-28 07:00:00 2.9 0 Calma 5 Oeste 0 -- -- 97
2021-02-28 06:00:00 3 2 Noroeste 4 Oeste 0 -- -- 96
2021-02-28 05:00:00 3 3 Oeste 7 Oeste 0 -- -- 97
2021-02-28 04:00:00 3.4 2 Oeste 5 Sudoeste 0 -- -- 98
2021-02-28 03:00:00 2.9 6 Este 15 Sudeste 0 -- -- 96
2021-02-28 02:00:00 3.9 9 Sudeste 23 Sudeste 0 -- -- 95
2021-02-28 01:00:00 4.7 12 Sudeste 27 Sudeste 0 -- -- 94
2021-02-28 00:00:00 4.6 16 Sudeste 27 Sudeste 0 -- -- 96
2021-02-27 23:00:00 5.1 15 Sudeste 31 Este 0 -- -- 95
2021-02-27 22:00:00 5 10 Sudeste 18 Sudeste 0 -- -- 97
2021-02-27 21:00:00 5.3 5 Este 17 Este 0 -- -- 94
2021-02-27 20:00:00 6.1 10 Este 20 Este 0 -- -- 93
2021-02-27 19:00:00 6.9 9 Este 24 Este 0 -- -- 90
2021-02-27 18:00:00 8.2 15 Este 29 Sudeste 0 -- -- 88
2021-02-27 17:00:00 8.9 13 Este 25 Este 0 -- -- 87
2021-02-27 16:00:00 9.9 14 Este 27 Este 0 -- -- 86
2021-02-27 15:00:00 10.3 10 Este 26 Sudeste 0 -- -- 89
2021-02-27 14:00:00 9.3 13 Este 28 Sudeste 0 -- -- 95
2021-02-27 13:00:00 8.9 18 Este 35 Este 0 -- -- 96
2021-02-27 12:00:00 9.6 19 Este 35 Este 0 -- -- 93
2021-02-27 11:00:00 9.6 17 Este 30 Este 0 -- -- 94
2021-02-27 10:00:00 9.1 15 Este 30 Sudeste 0 -- -- 96
2021-02-27 09:00:00 8.4 13 Sudeste 34 Sudeste 0 -- -- 97
2021-02-27 08:00:00 8.1 14 Este 28 Sudeste 0 -- -- 97
2021-02-27 07:00:00 8.1 14 Este 28 Este 0 -- -- 98
2021-02-27 06:00:00 8.2 14 Este 29 Este 0 -- -- 99
2021-02-27 05:00:00 8.2 13 Este 23 Sudeste 0 -- -- 99
2021-02-27 04:00:00 8.3 10 Sudeste 19 Este 0 -- -- 99
2021-02-27 03:00:00 8.4 8 Este 20 Sudeste 0 -- -- 98
2021-02-27 02:00:00 8.4 12 Sudeste 24 Sur 0 -- -- 98
2021-02-27 01:00:00 8.4 14 Este 26 Sudeste 0 -- -- 98
2021-02-27 00:00:00 8.5 12 Este 26 Este 0 -- -- 98
2021-02-26 23:00:00 8.7 11 Este 22 Sudeste 0 -- -- 100
2021-02-26 22:00:00 8.8 10 Sudeste 23 Sudeste 0 -- -- 100
2021-02-26 21:00:00 8.8 9 Este 25 Este 0 -- -- 100
2021-02-26 20:00:00 8.8 12 Este 23 Sudeste 0 -- -- 99
2021-02-26 19:00:00 9 12 Sudeste 19 Este 0 -- -- 99
2021-02-26 18:00:00 9.2 9 Sudeste 19 Este 0 -- -- 97
2021-02-26 17:00:00 9.4 10 Este 22 Este 0 -- -- 96
2021-02-26 16:00:00 9.5 14 Este 22 Sudeste 0 -- -- 96
2021-02-26 15:00:00 9.9 5 Sudeste 12 Sudeste 0 -- -- 97
2021-02-26 14:00:00 9.5 5 Sudeste 15 Sudeste 0 -- -- 100
2021-02-26 13:00:00 8.9 9 Sudeste 27 Este 0 -- -- 100
2021-02-26 12:00:00 9 11 Este 25 Sudeste 0 -- -- 100
2021-02-26 11:00:00 9 12 Este 23 Este 0 -- -- 100
2021-02-26 10:00:00 8.8 10 Este 22 Este 0 -- -- 100
2021-02-26 09:00:00 8.6 10 Este 22 Este 0 -- -- 100
2021-02-26 08:00:00 8.5 13 Sudeste 20 Sudeste 0 -- -- 100
2021-02-26 07:00:00 8.7 6 Sudeste 13 Sudeste 0 -- -- 100
2021-02-26 06:00:00 8.7 7 Sudeste 17 Sudeste 0 -- -- 100
2021-02-26 05:00:00 8.7 10 Sudeste 16 Sudeste 0.2 -- -- 100
2021-02-26 04:00:00 8.8 8 Sudeste 13 Este 0.2 -- -- 100
2021-02-26 03:00:00 8.8 4 Sudeste 10 Sudeste 0 -- -- 100
2021-02-26 02:00:00 8.8 2 Sudeste 8 Sudeste 0 -- -- 100
2021-02-26 01:00:00 8.8 4 Sudeste 9 Sudeste 0 -- -- 100
2021-02-26 00:00:00 8.8 6 Este 8 Este 0 -- -- 100
2021-02-25 23:00:00 8.8 0 Calma 4 Este 0.2 -- -- 100
2021-02-25 22:00:00 8.8 3 Sudoeste 4 Sudoeste 0.2 -- -- 100
2021-02-25 21:00:00 8.8 2 Oeste 3 Noroeste 0.2 -- -- 100
2021-02-25 20:00:00 8.8 2 Oeste 3 Noroeste 0 -- -- 100
2021-02-25 19:00:00 9 0 Calma 2 Sudoeste 0.4 -- -- 100
2021-02-25 18:00:00 9 0 Calma 7 Oeste 0 -- -- 100
2021-02-25 17:00:00 9 5 Oeste 7 Oeste 0 -- -- 98
2021-02-25 16:00:00 9 3 Oeste 14 Oeste 0 -- -- 97
2021-02-25 15:00:00 9.1 8 Oeste 12 Oeste 0 -- -- 96
2021-02-25 14:00:00 8.9 6 Oeste 11 Oeste 0 -- -- 98
2021-02-25 13:00:00 8.7 7 Noroeste 12 Norte 0 -- -- 98
2021-02-25 12:00:00 8.6 7 Noroeste 18 Oeste 0 -- -- 97
2021-02-25 11:00:00 9.1 12 Oeste 17 Oeste 0 -- -- 95
2021-02-25 10:00:00 9.3 11 Oeste 15 Oeste 0 -- -- 93
2021-02-25 09:00:00 9.3 8 Noroeste 16 Oeste 0 -- -- 91
2021-02-25 08:00:00 9.4 8 Oeste 10 Oeste 0 -- -- 88
2021-02-25 07:00:00 9.7 2 Noroeste 11 Oeste 0 -- -- 84
2021-02-25 06:00:00 9.6 8 Oeste 17 Oeste 0 -- -- 85
2021-02-25 05:00:00 9.7 12 Oeste 31 Oeste 0 -- -- 86
2021-02-25 04:00:00 9.9 14 Oeste 38 Oeste 0 -- -- 85
2021-02-25 03:00:00 10.5 28 Oeste 42 Oeste 0 -- -- 82
2021-02-25 02:00:00 16.4 21 Sudoeste 41 Oeste 0 -- -- 43
2021-02-25 01:00:00 16.4 24 Oeste 49 Sudoeste 0 -- -- 43
2021-02-25 00:00:00 15.1 6 Oeste 21 Noroeste 0 -- -- 48
2021-02-24 23:00:00 14.8 8 Nordeste 17 Oeste 0 -- -- 47
2021-02-24 22:00:00 16.1 12 Sudoeste 48 Sudoeste 0 -- -- 43
2021-02-24 21:00:00 17 23 Sudoeste 49 Oeste 0 -- -- 40
2021-02-24 20:00:00 17 21 Oeste 43 Sudoeste 0 -- -- 41
2021-02-24 19:00:00 17.4 26 Sudoeste 57 Sudoeste 0 -- -- 39
2021-02-24 18:00:00 17.4 8 Sur 47 Sudoeste 0 -- -- 35
2021-02-24 17:00:00 20.4 22 Sudoeste 48 Oeste 0 -- -- 32
2021-02-24 16:00:00 20.6 28 Sudoeste 68 Sudoeste 0 -- -- 29
2021-02-24 15:00:00 20.3 16 Oeste 32 Sudoeste 0 -- -- 30
2021-02-24 14:00:00 20.9 10 Sudoeste 41 Sur 0 -- -- 27
2021-02-24 13:00:00 20.1 6 Este 49 Oeste 0 -- -- 31
2021-02-24 12:00:00 19.2 9 Nordeste 19 Oeste 0 -- -- 29
2021-02-24 11:00:00 17.9 8 Sudeste 96 Sudoeste 0 -- -- 34
2021-02-24 10:00:00 16.4 42 Sudoeste 80 Oeste 0 -- -- 23
2021-02-24 09:00:00 13.2 14 Sur 40 Sudeste 0 -- -- 29
2021-02-24 08:00:00 11 8 Sudeste 39 Oeste 0 -- -- 45
2021-02-24 07:00:00 12.6 10 Sudeste 37 Oeste 0 -- -- 40
2021-02-24 06:00:00 12.1 10 Sudeste 40 Sudoeste 0 -- -- 42
2021-02-24 05:00:00 12.6 8 Sudeste 51 Sudoeste 0 -- -- 39
2021-02-24 04:00:00 11.3 11 Este 26 Sudoeste 0 -- -- 42
2021-02-24 03:00:00 12.1 11 Sur 35 Sudoeste 0 -- -- 38
2021-02-24 02:00:00 11.3 16 Sudeste 56 Sur 0 -- -- 40
2021-02-24 01:00:00 14.1 31 Sudoeste 66 Sudoeste 0 -- -- 33
2021-02-24 00:00:00 11.3 9 Este 23 Este 0 -- -- 35
2021-02-23 23:00:00 11.5 11 Sudeste 21 Este 0 -- -- 32
2021-02-23 22:00:00 12.8 12 Sudeste 18 Este 0 -- -- 29
2021-02-23 21:00:00 13.9 6 Este 36 Sudoeste 0 -- -- 24
2021-02-23 20:00:00 14.6 12 Sudeste 36 Sudoeste 0 -- -- 26
2021-02-23 19:00:00 16.6 12 Sudoeste 48 Sudoeste 0 -- -- 20
2021-02-23 18:00:00 18.4 25 Sudoeste 53 Sudoeste 0 -- -- 20
2021-02-23 17:00:00 19.4 22 Sudoeste 54 Sudoeste 0 -- -- 21
2021-02-23 16:00:00 20.3 17 Sudoeste 50 Sudoeste 0 -- -- 18
2021-02-23 15:00:00 19.6 4 Noroeste 24 Sudeste 0 -- -- 21
2021-02-23 14:00:00 18.5 8 Sudoeste 63 Sudoeste 0 -- -- 23
2021-02-23 13:00:00 18.3 15 Oeste 33 Oeste 0 -- -- 24
2021-02-23 12:00:00 16.5 6 Este 20 Noroeste 0 -- -- 34
2021-02-23 11:00:00 14.1 7 Este 23 Sudeste 0 -- -- 34
2021-02-23 10:00:00 10.7 9 Sudeste 29 Este 0 -- -- 43
2021-02-23 09:00:00 8.3 7 Este 19 Este 0 -- -- 43
2021-02-23 08:00:00 6.7 8 Este 22 Sudeste 0 -- -- 48
2021-02-23 07:00:00 5.8 9 Sudeste 14 Este 0 -- -- 63
2021-02-23 06:00:00 6.1 3 Sur 17 Sur 0 -- -- 57
2021-02-23 05:00:00 6.1 14 Sudeste 19 Sudeste 0 -- -- 63
2021-02-23 04:00:00 6.2 8 Sudeste 22 Este 0 -- -- 58
2021-02-23 03:00:00 6 6 Sudeste 11 Sudoeste 0 -- -- 71
2021-02-23 02:00:00 6.5 4 Este 16 Sudeste 0 -- -- 66
2021-02-23 01:00:00 5.4 8 Sudeste 13 Sudeste 0 -- -- 85
2021-02-23 00:00:00 5.3 0 Calma 6 Oeste 0 -- -- 96
2021-02-22 23:00:00 4.9 5 Este 6 Este 0 -- -- 95
2021-02-22 22:00:00 5 8 Sudeste 15 Sudeste 0 -- -- 95
2021-02-22 21:00:00 5.8 6 Este 26 Sudeste 0 -- -- 92
2021-02-22 20:00:00 6.2 17 Sudeste 23 Este 0 -- -- 89
2021-02-22 19:00:00 7.8 9 Sudeste 24 Sudeste 0 -- -- 80
2021-02-22 18:00:00 10.6 14 Sudeste 24 Sudeste 0 -- -- 70
2021-02-22 17:00:00 13.1 8 Este 23 Sudeste 0 -- -- 64
2021-02-22 16:00:00 13.6 3 Sudoeste 17 Sudoeste 0 -- -- 60
2021-02-22 15:00:00 12.9 8 Sudoeste 14 Oeste 0 -- -- 58
2021-02-22 14:00:00 11.9 4 Oeste 13 Oeste 0 -- -- 68
2021-02-22 13:00:00 9.4 8 Noroeste 16 Norte 0 -- -- 72
2021-02-22 12:00:00 9.5 3 Norte 14 Oeste 0 -- -- 76
2021-02-22 11:00:00 8.1 9 Noroeste 19 Oeste 0 -- -- 78
2021-02-22 10:00:00 6.1 12 Noroeste 23 Oeste 0 -- -- 92
2021-02-22 09:00:00 5.6 15 Noroeste 23 Oeste 0 -- -- 93
2021-02-22 08:00:00 5.4 6 Noroeste 9 Noroeste 0 -- -- 92
2021-02-22 07:00:00 4.9 7 Norte 30 Oeste 0 -- -- 96
2021-02-22 06:00:00 5.2 13 Noroeste 27 Noroeste 0.2 -- -- 96
2021-02-22 05:00:00 5.2 14 Noroeste 30 Oeste 0 -- -- 98
2021-02-22 04:00:00 4.9 8 Oeste 14 Norte 0.2 -- -- 100
2021-02-22 03:00:00 4.7 4 Noroeste 10 Noroeste 0.2 -- -- 100
2021-02-22 02:00:00 4.5 7 Oeste 10 Noroeste 0.4 -- -- 100
2021-02-22 01:00:00 4.4 7 Este 10 Este 0.6 -- -- 100
2021-02-22 00:00:00 4.2 4 Norte 8 Noroeste 0.8 -- -- 100
2021-02-21 23:00:00 3.9 4 Norte 6 Nordeste 1 -- -- 100
2021-02-21 22:00:00 3.9 5 Noroeste 10 Noroeste 1.6 -- -- 100
2021-02-21 21:00:00 4 6 Noroeste 17 Noroeste 1.8 -- -- 100
2021-02-21 20:00:00 4 8 Noroeste 24 Norte 1.4 -- -- 100
2021-02-21 19:00:00 4.4 14 Noroeste 26 Noroeste 1.6 -- -- 100
2021-02-21 18:00:00 4.9 12 Noroeste 24 Noroeste 1 -- -- 100
2021-02-21 17:00:00 5.4 16 Noroeste 27 Noroeste 1 -- -- 100
2021-02-21 16:00:00 5.9 24 Noroeste 33 Oeste 1.8 -- -- 99
2021-02-21 15:00:00 6.4 29 Oeste 41 Oeste 1 -- -- 97
2021-02-21 14:00:00 8.7 23 Noroeste 34 Noroeste 0 -- -- 95
2021-02-21 13:00:00 10.2 19 Oeste 26 Oeste 0 -- -- 92
2021-02-21 12:00:00 9.6 18 Oeste 32 Oeste 0.2 -- -- 91
2021-02-21 11:00:00 10.1 15 Oeste 44 Oeste 0 -- -- 87
2021-02-21 10:00:00 9.4 27 Oeste 39 Oeste 0 -- -- 86
2021-02-21 09:00:00 8.6 14 Oeste 52 Oeste 0 -- -- 90
2021-02-21 08:00:00 8.8 22 Oeste 41 Oeste 0 -- -- 90
2021-02-21 07:00:00 9.1 24 Oeste 39 Oeste 0 -- -- 92
2021-02-21 06:00:00 8.8 16 Oeste 25 Oeste 0 -- -- 96
2021-02-21 05:00:00 8.5 9 Oeste 14 Oeste 0 -- -- 97
2021-02-21 04:00:00 8.7 9 Oeste 19 Oeste 0 -- -- 95
2021-02-21 03:00:00 9 10 Sudoeste 17 Sudoeste 0 -- -- 94
2021-02-21 02:00:00 9.5 10 Sudoeste 21 Sudoeste 0 -- -- 90
2021-02-21 01:00:00 10.2 8 Oeste 17 Este 0 -- -- 81
2021-02-21 00:00:00 11.7 5 Sur 17 Sudeste 0 -- -- 68
2021-02-20 23:00:00 14.1 5 Nordeste 19 Oeste 0 -- -- 49
2021-02-20 22:00:00 15 10 Noroeste 27 Nordeste 0 -- -- 44
2021-02-20 21:00:00 14.5 13 Nordeste 23 Nordeste 0 -- -- 47
2021-02-20 20:00:00 14.7 7 Norte 26 Norte 0 -- -- 45
2021-02-20 19:00:00 15.7 7 Noroeste 30 Nordeste 0 -- -- 45
2021-02-20 18:00:00 17.7 9 Este 59 Sudoeste 0 -- -- 45
2021-02-20 17:00:00 17.8 38 Oeste 76 Sudoeste 0 -- -- 40
2021-02-20 16:00:00 19.1 27 Sudoeste 79 Sudoeste 0 -- -- 37
2021-02-20 15:00:00 19.2 24 Sudoeste 93 Sur 0 -- -- 31
2021-02-20 14:00:00 18.9 28 Sudoeste 90 Sur 0 -- -- 27
2021-02-20 13:00:00 18.9 24 Sudeste 97 Sudoeste 0 -- -- 25
2021-02-20 12:00:00 18.3 19 Este 105 Sur 0 -- -- 28
2021-02-20 11:00:00 17.8 37 Sudoeste 128 Sudoeste 0 -- -- 25
2021-02-20 10:00:00 16.7 14 Oeste 111 Sur 0 -- -- 28
2021-02-20 09:00:00 16.4 46 Sur 94 Sur 0 -- -- 27
2021-02-20 08:00:00 16.5 37 Sur 99 Sudoeste 0 -- -- 29
2021-02-20 07:00:00 15.7 22 Sur 92 Sur 0 -- -- 31
2021-02-20 06:00:00 15 25 Nordeste 86 Sur 0 -- -- 35
2021-02-20 05:00:00 15.3 24 Sudeste 56 Sudeste 0 -- -- 39
2021-02-20 04:00:00 14.8 24 Nordeste 56 Oeste 0 -- -- 46
2021-02-20 03:00:00 15.3 19 Norte 55 Norte 0 -- -- 47
2021-02-20 02:00:00 15.5 26 Sudoeste 91 Sudoeste 0 -- -- 46
2021-02-20 01:00:00 15.5 54 Sudoeste 109 Sur 0 -- -- 46
2021-02-20 00:00:00 15.5 33 Sudoeste 69 Sudoeste 0 -- -- 45
2021-02-19 23:00:00 14.8 14 Noroeste 55 Sur 0 -- -- 47
2021-02-19 22:00:00 15.3 19 Oeste 113 Sudoeste 0 -- -- 44
2021-02-19 21:00:00 16.1 64 Sudoeste 114 Sudoeste 0 -- -- 38
2021-02-19 20:00:00 16.3 39 Sudoeste 87 Oeste 0 -- -- 37
2021-02-19 19:00:00 15.7 29 Sudoeste 87 Sudoeste 0 -- -- 40
2021-02-19 18:00:00 16.2 23 Oeste 85 Sudoeste 0 -- -- 37
2021-02-19 17:00:00 16.2 33 Sudoeste 85 Sudoeste 0 -- -- 39
2021-02-19 16:00:00 16.1 40 Sudoeste 101 Sudoeste 0 -- -- 39
2021-02-19 15:00:00 16.4 48 Sur 102 Sur 0 -- -- 39
2021-02-19 14:00:00 16.5 28 Sudoeste 80 Oeste 0 -- -- 43
2021-02-19 13:00:00 16.6 21 Sudoeste 84 Sudoeste 0 -- -- 42
2021-02-19 12:00:00 15.6 58 Sudoeste 105 Sudoeste 0 -- -- 46
2021-02-19 11:00:00 16.1 37 Sudoeste 99 Sudoeste 0 -- -- 44
2021-02-19 10:00:00 15.6 46 Sudoeste 95 Sudoeste 0 -- -- 45
2021-02-19 09:00:00 15 37 Sudoeste 73 Sudoeste 0 -- -- 47
2021-02-19 08:00:00 14 17 Oeste 55 Sudoeste 0 -- -- 48
2021-02-19 07:00:00 14.6 35 Sudoeste 64 Oeste 0 -- -- 42
2021-02-19 06:00:00 11.4 9 Norte 43 Sur 0 -- -- 56
2021-02-19 05:00:00 11.7 10 Norte 73 Sudoeste 0 -- -- 55
2021-02-19 04:00:00 12.8 21 Oeste 69 Sudoeste 0 -- -- 51
2021-02-19 03:00:00 8.9 12 Este 76 Sudoeste 0 -- -- 74
2021-02-19 02:00:00 5.5 7 Norte 22 Nordeste 0 -- -- 95
2021-02-19 01:00:00 5.3 6 Oeste 25 Este 0 -- -- 97
2021-02-19 00:00:00 5.5 3 Este 13 Norte 0 -- -- 98
2021-02-18 23:00:00 5.6 4 Sudoeste 21 Este 0 -- -- 98
2021-02-18 22:00:00 6.2 9 Sudeste 17 Sudeste 0.2 -- -- 97
2021-02-18 21:00:00 6.5 9 Sudeste 15 Sudeste 0 -- -- 98
2021-02-18 20:00:00 6.8 6 Sudeste 13 Sudeste 0 -- -- 96
2021-02-18 19:00:00 7.5 4 Este 15 Sudeste 0 -- -- 96
2021-02-18 18:00:00 8.2 6 Sudeste 12 Sudeste 0 -- -- 97
2021-02-18 17:00:00 8.4 3 Sudoeste 10 Sudeste 0.2 -- -- 95
2021-02-18 16:00:00 8.9 7 Sudeste 12 Oeste 0.2 -- -- 94
2021-02-18 15:00:00 9.5 8 Oeste 25 Oeste 0 -- -- 90
2021-02-18 14:00:00 8.5 22 Oeste 40 Oeste 0.4 -- -- 94
2021-02-18 13:00:00 9.2 16 Oeste 26 Oeste 0.2 -- -- 96
2021-02-18 12:00:00 9.4 10 Oeste 26 Oeste 0.6 -- -- 93
2021-02-18 11:00:00 10.3 21 Oeste 33 Oeste 0 -- -- 85
2021-02-18 10:00:00 11.3 14 Oeste 30 Norte 0 -- -- 78
2021-02-18 09:00:00 14.3 20 Sudoeste 64 Sudoeste 0 -- -- 50
2021-02-18 08:00:00 14.7 30 Sudoeste 69 Sudoeste 0 -- -- 50
2021-02-18 07:00:00 14.9 13 Norte 88 Sudoeste 0 -- -- 45
2021-02-18 06:00:00 15.4 31 Sudoeste 98 Sudoeste 0 -- -- 43
2021-02-18 05:00:00 15.9 49 Sudoeste 98 Oeste 0 -- -- 42
2021-02-18 04:00:00 16 31 Sudoeste 90 Sudoeste 0 -- -- 44
2021-02-18 03:00:00 15.9 15 Sudoeste 74 Sudoeste 0 -- -- 47
2021-02-18 02:00:00 15.8 14 Noroeste 64 Sudoeste 0 -- -- 47
2021-02-18 01:00:00 15.9 14 Oeste 31 Oeste 0 -- -- 48
2021-02-18 00:00:00 14.4 10 Nordeste 35 Sur 0 -- -- 57
2021-02-17 23:00:00 15.2 15 Sudeste 48 Sur 0 -- -- 54
2021-02-17 22:00:00 16.1 35 Sudoeste 76 Sudoeste 0 -- -- 48
2021-02-17 21:00:00 14.2 10 Oeste 36 Sur 0 -- -- 54
2021-02-17 20:00:00 15.8 27 Sudoeste 64 Sudoeste 0 -- -- 50
2021-02-17 19:00:00 14.5 16 Sur 54 Sudoeste 0 -- -- 48
2021-02-17 18:00:00 15.9 30 Sudoeste 55 Sudoeste 0 -- -- 45
2021-02-17 17:00:00 14.9 14 Nordeste 30 Sudoeste 0 -- -- 47
2021-02-17 16:00:00 15.9 7 Nordeste 37 Sudoeste 0 -- -- 45
2021-02-17 15:00:00 15.8 17 Sudoeste 44 Oeste 0 -- -- 38
2021-02-17 14:00:00 15.9 23 Sudoeste 68 Sudoeste 0 -- -- 41
2021-02-17 13:00:00 15.6 26 Sudoeste 49 Sudoeste 0 -- -- 46
2021-02-17 12:00:00 14 8 Oeste 13 Oeste 0 -- -- 55
2021-02-17 11:00:00 11.5 3 Oeste 21 Sudeste 0 -- -- 61
2021-02-17 10:00:00 8.7 7 Sudeste 24 Sur 0 -- -- 68
2021-02-17 09:00:00 5.7 6 Oeste 16 Sudoeste 0 -- -- 83
2021-02-17 08:00:00 5.9 3 Sudoeste 10 Sudoeste 0 -- -- 86
2021-02-17 07:00:00 5.9 3 Este 15 Oeste 0 -- -- 88
2021-02-17 06:00:00 6.4 4 Sudeste 9 Sudeste 0 -- -- 92
2021-02-17 05:00:00 7 0 Calma 5 Sudoeste 0 -- -- 89
2021-02-17 04:00:00 7 2 Este 7 Sudeste 0 -- -- 90
2021-02-17 03:00:00 7.5 2 Noroeste 8 Sudoeste 0 -- -- 90
2021-02-17 02:00:00 7 3 Oeste 10 Sur 0 -- -- 94
2021-02-17 01:00:00 7 4 Sudeste 10 Sudeste 0 -- -- 94
2021-02-17 00:00:00 7.4 0 Calma 10 Sudeste 0 -- -- 95
2021-02-16 23:00:00 7.6 4 Sudeste 7 Este 0 -- -- 93
2021-02-16 22:00:00 8.4 4 Este 8 Sudeste 0 -- -- 91
2021-02-16 21:00:00 8.8 7 Sudeste 8 Sudeste 0 -- -- 90
2021-02-16 20:00:00 10.1 0 Calma 5 Sudeste 0 -- -- 85
2021-02-16 19:00:00 10.9 3 Sudeste 20 Este 0 -- -- 80
2021-02-16 18:00:00 12.1 5 Sudeste 17 Sudeste 0 -- -- 79
2021-02-16 17:00:00 13.3 12 Sudeste 22 Este 0 -- -- 73
2021-02-16 16:00:00 13.7 15 Este 24 Este 0 -- -- 78
2021-02-16 15:00:00 13.8 8 Este 14 Este 0 -- -- 70
2021-02-16 14:00:00 12.6 11 Oeste 30 Oeste 0 -- -- 71
2021-02-16 13:00:00 11.6 19 Oeste 37 Oeste 0 -- -- 76
2021-02-16 12:00:00 11.5 31 Oeste 51 Noroeste 0 -- -- 75
2021-02-16 11:00:00 16.3 28 Noroeste 59 Oeste 0 -- -- 41
2021-02-16 10:00:00 16 19 Noroeste 79 Sudoeste 0 -- -- 36
2021-02-16 09:00:00 15.6 44 Sudoeste 90 Sudoeste 0 -- -- 38
2021-02-16 08:00:00 15.9 23 Sudoeste 92 Sudoeste 0 -- -- 39
2021-02-16 07:00:00 16 33 Sur 73 Sudoeste 0 -- -- 40
2021-02-16 06:00:00 16.3 41 Sur 87 Sur 0 -- -- 39
2021-02-16 05:00:00 16.5 61 Sudoeste 111 Sudoeste 0 -- -- 41
2021-02-16 04:00:00 17 35 Sudoeste 81 Sudoeste 0 -- -- 38
2021-02-16 03:00:00 17.6 56 Sudoeste 98 Sudoeste 0 -- -- 36
2021-02-16 02:00:00 18 71 Sudoeste 99 Sudoeste 0 -- -- 34
2021-02-16 01:00:00 18.9 55 Sudoeste 79 Sudoeste 0 -- -- 29
2021-02-16 00:00:00 17.7 12 Sudoeste 60 Sudoeste 0 -- -- 30
2021-02-15 23:00:00 19.1 51 Sudoeste 82 Sudoeste 0 -- -- 30
2021-02-15 22:00:00 19.3 45 Sudoeste 82 Sur 0 -- -- 27
2021-02-15 21:00:00 20 40 Sur 85 Sudoeste 0 -- -- 23
2021-02-15 20:00:00 20 27 Sudoeste 72 Sudoeste 0 -- -- 21
2021-02-15 19:00:00 20.1 21 Sudoeste 66 Sudoeste 0 -- -- 21
2021-02-15 18:00:00 19.9 35 Sudoeste 62 Sudoeste 0 -- -- 22
2021-02-15 17:00:00 20 27 Sudoeste 59 Sudoeste 0 -- -- 23
2021-02-15 16:00:00 19.3 4 Noroeste 31 Sur 0 -- -- 35
2021-02-15 15:00:00 19.8 3 Este 10 Sudeste 0 -- -- 32
2021-02-15 14:00:00 19.7 2 Nordeste 20 Sudeste 0 -- -- 27
2021-02-15 13:00:00 19.3 9 Sudeste 21 Sudeste 0 -- -- 36
2021-02-15 12:00:00 18.5 8 Sudeste 25 Sudeste 0 -- -- 34
2021-02-15 11:00:00 16.3 7 Este 19 Sudeste 0 -- -- 31
2021-02-15 10:00:00 14.3 12 Sudeste 22 Sudeste 0 -- -- 34
2021-02-15 09:00:00 12.4 12 Sudeste 19 Sudeste 0 -- -- 45
2021-02-15 08:00:00 12.4 12 Sudeste 23 Sudeste 0 -- -- 46
2021-02-15 07:00:00 14.2 17 Sudeste 24 Sudeste 0 -- -- 40
2021-02-15 06:00:00 14.3 11 Sudeste 21 Este 0 -- -- 34
2021-02-15 05:00:00 14.2 14 Sudeste 23 Este 0 -- -- 36
2021-02-15 04:00:00 14.6 11 Sudeste 24 Sur 0 -- -- 36
2021-02-15 03:00:00 14.3 13 Sudeste 26 Este 0 -- -- 42
2021-02-15 02:00:00 14.2 16 Sudeste 33 Sudoeste 0 -- -- 45
2021-02-15 01:00:00 16.3 15 Sudeste 45 Sur 0 -- -- 40
2021-02-15 00:00:00 16.1 8 Este 46 Sudoeste 0 -- -- 40
2021-02-14 23:00:00 17 20 Sudoeste 49 Sudoeste 0 -- -- 37
2021-02-14 22:00:00 16 18 Sudoeste 38 Sudoeste 0 -- -- 37
2021-02-14 21:00:00 14.1 7 Sudeste 15 Sudeste 0 -- -- 50
2021-02-14 20:00:00 14.5 3 Sudeste 9 Este 0 -- -- 54
2021-02-14 19:00:00 15.8 3 Este 12 Nordeste 0 -- -- 54
2021-02-14 18:00:00 17.8 5 Oeste 22 Sudoeste 0 -- -- 48
2021-02-14 17:00:00 18.7 7 Sudeste 12 Sudeste 0 -- -- 51
2021-02-14 16:00:00 17.5 3 Sur 18 Sudeste 0 -- -- 56
2021-02-14 15:00:00 17 9 Sudeste 19 Sudeste 0 -- -- 56
2021-02-14 14:00:00 16.2 12 Sudeste 22 Sudeste 0 -- -- 63
2021-02-14 13:00:00 15.2 5 Sudeste 16 Sudeste 0 -- -- 61
2021-02-14 12:00:00 13.2 6 Sudeste 13 Sudeste 0 -- -- 70
2021-02-14 11:00:00 11.2 6 Sudeste 19 Sudeste 0 -- -- 75
2021-02-14 10:00:00 9.2 8 Este 15 Sudeste 0 -- -- 76
2021-02-14 09:00:00 7.8 9 Este 14 Este 0 -- -- 82
2021-02-14 08:00:00 8 3 Sudeste 10 Nordeste 0 -- -- 79
2021-02-14 07:00:00 8.5 2 Este 10 Este 0 -- -- 76
2021-02-14 06:00:00 7.2 6 Este 17 Sudeste 0 -- -- 84
2021-02-14 05:00:00 6.5 6 Sudeste 12 Este 0 -- -- 88
2021-02-14 04:00:00 7.1 0 Calma 11 Sudeste 0 -- -- 86
2021-02-14 03:00:00 7.1 6 Este 16 Este 0 -- -- 87
2021-02-14 02:00:00 7.4 3 Este 9 Nordeste 0 -- -- 87
2021-02-14 01:00:00 7.8 3 Sudeste 9 Este 0 -- -- 89
2021-02-14 00:00:00 7.7 6 Sudeste 11 Sudeste 0 -- -- 92
2021-02-13 23:00:00 8.3 4 Este 9 Este 0 -- -- 92
2021-02-13 22:00:00 8.8 9 Este 12 Este 0 -- -- 91
2021-02-13 21:00:00 9.3 10 Sudeste 20 Sudeste 0 -- -- 91
2021-02-13 20:00:00 9.6 13 Sudeste 15 Sudeste 0 -- -- 89
2021-02-13 19:00:00 11.3 7 Sur 17 Sudeste 0 -- -- 81
2021-02-13 18:00:00 13 8 Sur 12 Sudeste 0 -- -- 73
2021-02-13 17:00:00 14 3 Norte 7 Oeste 0 -- -- 74
2021-02-13 16:00:00 13.9 2 Sur 10 Sur 0 -- -- 74
2021-02-13 15:00:00 12.9 5 Sur 12 Sur 0 -- -- 70
2021-02-13 14:00:00 12.8 5 Sur 10 Este 0 -- -- 79
2021-02-13 13:00:00 10.2 4 Sudeste 19 Sudeste 0 -- -- 95
2021-02-13 08:00:00 -- -- -- -- -- -- -- -- --
2021-02-13 07:00:00 5 6 Sur 16 Sudeste 0 -- -- 95
2021-02-13 06:00:00 5.8 9 Sudeste 12 Sudeste 0 -- -- 97
2021-02-13 05:00:00 5.1 4 Sur 11 Este 0 -- -- 98
2021-02-13 04:00:00 5.6 4 Sur 16 Sudeste 0 -- -- 98
2021-02-13 03:00:00 5.4 14 Sudeste 18 Sudeste 0 -- -- 100
2021-02-13 02:00:00 5.6 7 Sudeste 12 Sudeste 0 -- -- 100
2021-02-13 01:00:00 5.9 6 Este 12 Sudeste 0 -- -- 100
2021-02-13 00:00:00 6.4 9 Sudeste 13 Sudeste 0 -- -- 100
2021-02-12 23:00:00 6.6 9 Sudeste 14 Sudeste 0 -- -- 100
2021-02-12 22:00:00 7.2 7 Sudeste 9 Sudeste 0 -- -- 99
2021-02-12 21:00:00 8 4 Este 15 Este 0 -- -- 98
2021-02-12 20:00:00 8.4 12 Sudeste 15 Sudeste 0 -- -- 95
2021-02-12 19:00:00 9.7 6 Oeste 10 Sudoeste 0 -- -- 92
2021-02-12 18:00:00 10.9 6 Oeste 13 Noroeste 0 -- -- 89
2021-02-12 17:00:00 11 9 Noroeste 21 Norte 0 -- -- 89
2021-02-12 16:00:00 10.3 14 Norte 25 Norte 0 -- -- 93
2021-02-12 15:00:00 10.6 16 Noroeste 32 Oeste 0 -- -- 90
2021-02-12 14:00:00 10.9 18 Noroeste 39 Oeste 0.2 -- -- 94
2021-02-12 13:00:00 9.7 14 Noroeste 42 Oeste 0 -- -- 98
2021-02-12 12:00:00 9.5 26 Oeste 47 Oeste 0 -- -- 99
2021-02-12 11:00:00 8.8 22 Noroeste 31 Noroeste 0.6 -- -- 100
2021-02-12 10:00:00 8.7 15 Noroeste 44 Noroeste 0.8 -- -- 100
2021-02-12 09:00:00 8.9 19 Noroeste 32 Norte 2.2 -- -- 100
2021-02-12 08:00:00 9 18 Noroeste 49 Oeste 2 -- -- 100
2021-02-12 07:00:00 9.6 32 Oeste 46 Noroeste 1.2 -- -- 100
2021-02-12 06:00:00 9.5 4 Oeste 10 Sudoeste 0.2 -- -- 100
2021-02-12 05:00:00 9.5 2 Este 8 Sudoeste 0.4 -- -- 100
2021-02-12 04:00:00 9.5 5 Oeste 8 Oeste 2.4 -- -- 100
2021-02-12 03:00:00 9.5 4 Oeste 17 Noroeste 4 -- -- 100
2021-02-12 02:00:00 9.7 15 Noroeste 31 Oeste 1.6 -- -- 99
2021-02-12 01:00:00 10.4 28 Oeste 41 Oeste 0.2 -- -- 93
2021-02-12 00:00:00 10.8 14 Oeste 22 Oeste 0 -- -- 89
2021-02-11 23:00:00 11.1 5 Noroeste 8 Oeste 0 -- -- 86
2021-02-11 22:00:00 11.2 5 Sur 24 Sudeste 0 -- -- 86
2021-02-11 21:00:00 11.3 16 Sudeste 30 Este 0 -- -- 85
2021-02-11 20:00:00 11.8 19 Sudeste 30 Este 0 -- -- 85
2021-02-11 19:00:00 12.8 5 Sudeste 13 Sur 0 -- -- 82
2021-02-11 18:00:00 13.3 2 Sur 12 Sudeste 0 -- -- 81
2021-02-11 17:00:00 13.7 10 Sudeste 14 Este 0 -- -- 79
2021-02-11 16:00:00 14.2 0 Calma 7 Sudoeste 0 -- -- 81
2021-02-11 15:00:00 13.8 2 Oeste 12 Oeste 0 -- -- 78
2021-02-11 14:00:00 11.8 10 Sudoeste 32 Este 0 -- -- 89
2021-02-11 13:00:00 11 3 Sudoeste 15 Oeste 1 -- -- 86
2021-02-11 12:00:00 11.4 17 Oeste 24 Oeste 0.2 -- -- 79
2021-02-11 11:00:00 10.2 3 Sudoeste 6 Sudeste 0 -- -- 76
2021-02-11 10:00:00 8.1 4 Sudoeste 8 Sudeste 0 -- -- 88
2021-02-11 09:00:00 7.3 3 Sur 5 Oeste 0 -- -- 89
2021-02-11 08:00:00 6.9 5 Este 9 Este 0 -- -- 94
2021-02-11 07:00:00 7 2 Sur 9 Sur 0 -- -- 95
2021-02-11 06:00:00 6.9 5 Sudeste 7 Sudeste 0 -- -- 96
2021-02-11 05:00:00 6.8 4 Sudeste 14 Sudeste 0 -- -- 97
2021-02-11 04:00:00 7 12 Sudeste 14 Sur 0 -- -- 97
2021-02-11 03:00:00 7 2 Sudoeste 8 Este 0 -- -- 97
2021-02-11 02:00:00 7 0 Calma 8 Sudeste 0 -- -- 97
2021-02-11 01:00:00 6.7 3 Sudoeste 13 Sudeste 0 -- -- 97
2021-02-11 00:00:00 6.5 10 Sudeste 14 Sudeste 0 -- -- 96
2021-02-10 23:00:00 6.7 7 Sudeste 13 Sudeste 0 -- -- 95
2021-02-10 22:00:00 7 5 Sudeste 9 Sudeste 0 -- -- 94
2021-02-10 21:00:00 7.4 3 Este 6 Este 0 -- -- 90
2021-02-10 20:00:00 7.8 2 Sudoeste 15 Sudoeste 0 -- -- 88
2021-02-10 19:00:00 8.2 11 Oeste 22 Oeste 0 -- -- 88
2021-02-10 18:00:00 9.3 12 Oeste 23 Oeste 0 -- -- 83
2021-02-10 17:00:00 11.6 12 Noroeste 33 Oeste 0 -- -- 68
2021-02-10 16:00:00 12.9 26 Oeste 39 Oeste 0 -- -- 59
2021-02-10 15:00:00 12.5 28 Noroeste 42 Noroeste 0 -- -- 60
2021-02-10 14:00:00 10.8 26 Noroeste 47 Noroeste 0 -- -- 62
2021-02-10 13:00:00 10.9 27 Noroeste 55 Noroeste 0 -- -- 62
2021-02-10 12:00:00 10.6 30 Noroeste 60 Oeste 0 -- -- 61
2021-02-10 11:00:00 9.1 31 Oeste 55 Oeste 0 -- -- 68
2021-02-10 10:00:00 8.3 28 Oeste 52 Oeste 0 -- -- 68
2021-02-10 09:00:00 7.1 27 Noroeste 41 Oeste 0 -- -- 73
2021-02-10 08:00:00 7.1 22 Noroeste 36 Noroeste 0 -- -- 69
2021-02-10 07:00:00 6.1 17 Noroeste 67 Oeste 0 -- -- 82
2021-02-10 06:00:00 5.2 20 Noroeste 40 Noroeste 0 -- -- 94
2021-02-10 05:00:00 4.9 6 Noroeste 12 Noroeste 0 -- -- 95
2021-02-10 04:00:00 5.2 13 Oeste 29 Oeste 0.6 -- -- 93
2021-02-10 03:00:00 6.8 10 Noroeste 13 Noroeste 0 -- -- 83
2021-02-10 02:00:00 6.3 6 Noroeste 14 Sudoeste 0 -- -- 88
2021-02-10 01:00:00 6.4 5 Sudoeste 9 Sudoeste 0 -- -- 87
2021-02-10 00:00:00 6.8 5 Oeste 18 Sudoeste 0 -- -- 85
2021-02-09 23:00:00 7 10 Oeste 22 Sudeste 0 -- -- 89
2021-02-09 22:00:00 6.9 17 Sudeste 22 Sudeste 0 -- -- 89
2021-02-09 21:00:00 7.8 6 Este 32 Este 0 -- -- 80
2021-02-09 20:00:00 8.9 8 Nordeste 49 Sudoeste 0 -- -- 68
2021-02-09 19:00:00 10.2 12 Oeste 46 Sudoeste 0 -- -- 48
2021-02-09 18:00:00 10.9 21 Sudoeste 39 Sudoeste 0 -- -- 44
2021-02-09 17:00:00 13.6 22 Sudoeste 40 Oeste 0 -- -- 33
2021-02-09 16:00:00 13.7 24 Sudoeste 52 Oeste 0 -- -- 34
2021-02-09 15:00:00 12.2 4 Oeste 23 Noroeste 0 -- -- 59
2021-02-09 14:00:00 9.5 9 Sudoeste 30 Norte 0 -- -- 72
2021-02-09 13:00:00 9.5 36 Sur 76 Sudoeste 0 -- -- 67
2021-02-09 12:00:00 6.9 12 Norte 74 Oeste 1 -- -- 96
2021-02-09 11:00:00 11.4 21 Norte 49 Sudoeste 0 -- -- 62
2021-02-09 10:00:00 12.6 38 Sudoeste 96 Sudoeste 0 -- -- 51
2021-02-09 09:00:00 12.5 38 Sudoeste 90 Sudoeste 0 -- -- 51
2021-02-09 08:00:00 12 40 Sudoeste 89 Sudoeste 0 -- -- 52
2021-02-09 07:00:00 12.1 48 Sudoeste 108 Sudoeste 0 -- -- 52
2021-02-09 06:00:00 11.4 61 Sudoeste 94 Sudoeste 0 -- -- 53
2021-02-09 05:00:00 10 39 Sudoeste 73 Sudoeste 0 -- -- 61
2021-02-09 04:00:00 6.1 15 Sudeste 28 Sudeste 0.2 -- -- 95
2021-02-09 03:00:00 6.5 5 Sudoeste 12 Este 0 -- -- 89
2021-02-09 02:00:00 6.2 6 Sudeste 22 Este 0 -- -- 92
2021-02-09 01:00:00 6.1 8 Sur 16 Este 0 -- -- 96
2021-02-09 00:00:00 6.4 5 Sudoeste 15 Sur 0 -- -- 94
2021-02-08 23:00:00 6.9 3 Sudeste 13 Sudeste 0 -- -- 90
2021-02-08 22:00:00 7.5 10 Sudeste 19 Sudeste 0 -- -- 85
2021-02-08 21:00:00 8.4 3 Norte 18 Noroeste 0 -- -- 77
2021-02-08 20:00:00 8 7 Oeste 20 Norte 0 -- -- 81
2021-02-08 19:00:00 8.5 13 Norte 30 Oeste 0.2 -- -- 81
2021-02-08 18:00:00 9.2 22 Noroeste 32 Noroeste 0 -- -- 82
2021-02-08 17:00:00 10.3 3 Sudoeste 14 Noroeste 0 -- -- 81
2021-02-08 16:00:00 10.2 7 Oeste 31 Norte 0.2 -- -- 87
2021-02-08 15:00:00 11.4 13 Noroeste 21 Noroeste 0 -- -- 74
2021-02-08 14:00:00 12.3 5 Noroeste 10 Este 0 -- -- 66
2021-02-08 13:00:00 11.6 4 Norte 10 Oeste 0 -- -- 70
2021-02-08 12:00:00 10.8 2 Norte 6 Este 0 -- -- 79
2021-02-08 11:00:00 8.3 2 Noroeste 9 Sudoeste 0 -- -- 85
2021-02-08 10:00:00 7.1 2 Sudeste 9 Sudeste 0 -- -- 90
2021-02-08 09:00:00 6.7 4 Sudeste 8 Oeste 0 -- -- 88
2021-02-08 08:00:00 6.9 2 Nordeste 8 Este 0 -- -- 89
2021-02-08 07:00:00 7.1 0 Calma 10 Oeste 0 -- -- 87
2021-02-08 06:00:00 7.6 4 Este 10 Noroeste 0 -- -- 83
2021-02-08 05:00:00 8.2 10 Oeste 17 Oeste 0 -- -- 80
2021-02-08 04:00:00 8.1 10 Oeste 17 Oeste 0 -- -- 84
2021-02-08 03:00:00 8.3 4 Noroeste 14 Nordeste 0 -- -- 84
2021-02-08 02:00:00 8.1 10 Oeste 30 Sudoeste 0.2 -- -- 87
2021-02-08 01:00:00 6.6 11 Este 19 Este 0 -- -- 97
2021-02-08 00:00:00 5.9 5 Nordeste 13 Sudeste 0 -- -- 99
2021-02-07 23:00:00 5.5 4 Sudoeste 12 Sudoeste 0 -- -- 100
2021-02-07 22:00:00 4.2 3 Sur 11 Sudeste 0 -- -- 100
2021-02-07 21:00:00 4.3 3 Sudeste 10 Sudoeste 0 -- -- 100
2021-02-07 20:00:00 4.2 2 Sudeste 13 Sudeste 0.2 -- -- 99
2021-02-07 19:00:00 4.6 8 Sudeste 15 Sudeste 0.2 -- -- 99
2021-02-07 18:00:00 5.1 11 Sudeste 15 Sudeste 1 -- -- 97
2021-02-07 17:00:00 5.7 7 Sudeste 16 Este 0.8 -- -- 93
2021-02-07 16:00:00 7.3 6 Sudeste 10 Este 0.4 -- -- 85
2021-02-07 15:00:00 7.9 0 Calma 4 Este 0 -- -- 69
2021-02-07 14:00:00 7.6 0 Calma 7 Sudoeste 0 -- -- 69
2021-02-07 13:00:00 7.1 5 Sudeste 10 Sur 0 -- -- 75
2021-02-07 12:00:00 6.5 2 Sur 6 Sur 0 -- -- 82
2021-02-07 11:00:00 4.6 6 Sudeste 9 Sudeste 0 -- -- 83
2021-02-07 10:00:00 3.2 0 Calma 3 Sudoeste 0 -- -- 88
2021-02-07 09:00:00 2.1 0 Calma 6 Nordeste 0 -- -- 88
2021-02-07 08:00:00 2.2 0 Calma 4 Sur 0 -- -- 87
2021-02-07 07:00:00 2.2 3 Oeste 4 Oeste 0 -- -- 91
2021-02-07 06:00:00 2.5 2 Noroeste 7 Oeste 0 -- -- 92
2021-02-07 05:00:00 2.8 2 Oeste 5 Sudoeste 0 -- -- 90
2021-02-07 04:00:00 2.8 3 Noroeste 6 Noroeste 0 -- -- 92
2021-02-07 03:00:00 2.8 0 Calma 8 Este 0 -- -- 92
2021-02-07 02:00:00 3.1 4 Noroeste 10 Norte 0 -- -- 95
2021-02-07 01:00:00 3.4 2 Norte 10 Norte 0 -- -- 97
2021-02-07 00:00:00 3.4 7 Norte 24 Noroeste 0 -- -- 99
2021-02-06 23:00:00 3.6 5 Noroeste 9 Norte 0 -- -- 97
2021-02-06 22:00:00 3.6 3 Noroeste 29 Oeste 0.2 -- -- 98
2021-02-06 21:00:00 4.1 14 Oeste 30 Oeste 0.2 -- -- 95
2021-02-06 20:00:00 4.3 15 Oeste 27 Oeste 1.4 -- -- 98
2021-02-06 19:00:00 4.4 16 Oeste 31 Sudoeste 0.6 -- -- 97
2021-02-06 18:00:00 4.7 14 Oeste 30 Oeste 0.2 -- -- 96
2021-02-06 17:00:00 5.1 17 Noroeste 31 Norte 0.8 -- -- 99
2021-02-06 16:00:00 5.3 15 Oeste 24 Oeste 2 -- -- 98
2021-02-06 15:00:00 5.6 11 Oeste 24 Oeste 2.4 -- -- 99
2021-02-06 14:00:00 5.7 14 Oeste 31 Oeste 1.6 -- -- 99
2021-02-06 13:00:00 6 9 Oeste 20 Oeste 2.2 -- -- 100
2021-02-06 12:00:00 5.9 13 Oeste 20 Oeste 1.2 -- -- 100
2021-02-06 11:00:00 5.7 9 Oeste 18 Oeste 1 -- -- 100
2021-02-06 10:00:00 5.9 12 Oeste 19 Oeste 0.4 -- -- 100
2021-02-06 09:00:00 5.8 13 Oeste 17 Oeste 0.8 -- -- 100
2021-02-06 08:00:00 6.1 9 Oeste 12 Oeste 1.8 -- -- 100
2021-02-06 07:00:00 6.3 3 Sudoeste 5 Sur 2 -- -- 100
2021-02-06 06:00:00 6.6 2 Sudoeste 14 Sudeste 1.6 -- -- 100
2021-02-06 05:00:00 6.8 4 Sur 8 Sur 2.4 -- -- 100
2021-02-06 04:00:00 6.9 3 Sudeste 6 Sur 1.4 -- -- 100
2021-02-06 03:00:00 7 3 Este 16 Sudeste 0.6 -- -- 100
2021-02-06 02:00:00 7.2 8 Sudeste 16 Sudeste 2.8 -- -- 100
2021-02-06 01:00:00 7.5 6 Sudeste 19 Sudeste 2 -- -- 100
2021-02-06 00:00:00 7.7 0 Calma 6 Noroeste 4 -- -- 100
2021-02-05 23:00:00 7.5 0 Calma 4 Este 5 -- -- 100
2021-02-05 22:00:00 7.5 4 Sudeste 8 Sudeste 2.6 -- -- 100
2021-02-05 21:00:00 7.4 3 Sudeste 5 Sudeste 1.6 -- -- 100
2021-02-05 20:00:00 7.4 0 Calma 3 Oeste 1 -- -- 100
2021-02-05 19:00:00 7.4 3 Sudoeste 5 Oeste 0.4 -- -- 100
2021-02-05 18:00:00 7.7 0 Calma 2 Sudoeste 0.4 -- -- 100
2021-02-05 17:00:00 7.7 0 Calma 6 Oeste 0.4 -- -- 100
2021-02-05 16:00:00 8 4 Oeste 6 Oeste 0 -- -- 100
2021-02-05 15:00:00 8.1 2 Oeste 5 Oeste 0.4 -- -- 100
2021-02-05 14:00:00 8.2 0 Calma 3 Norte 0.4 -- -- 100
2021-02-05 13:00:00 8.3 0 Calma 4 Nordeste 1 -- -- 100
2021-02-05 12:00:00 7.8 2 Sur 6 Sudoeste 1.6 -- -- 100
2021-02-05 11:00:00 7.4 0 Calma 6 Oeste 0.8 -- -- 100
2021-02-05 10:00:00 7.2 2 Noroeste 4 Oeste 1.2 -- -- 100
2021-02-05 09:00:00 7.2 0 Calma 4 Oeste 0.4 -- -- 100
2021-02-05 08:00:00 7.2 2 Oeste 7 Noroeste 0 -- -- 100
2021-02-05 07:00:00 7.2 4 Oeste 6 Oeste 0.2 -- -- 100
2021-02-05 06:00:00 7.3 3 Noroeste 8 Sudoeste 0 -- -- 100
2021-02-05 05:00:00 7.1 5 Sudoeste 7 Sudeste 0.2 -- -- 99
2021-02-05 04:00:00 7.3 3 Sur 7 Sudeste 0 -- -- 98
2021-02-05 03:00:00 7.4 4 Este 6 Sudeste 0 -- -- 98
2021-02-05 02:00:00 7.6 3 Sudoeste 5 Sudoeste 0 -- -- 97
2021-02-05 01:00:00 7.8 0 Calma 11 Oeste 0 -- -- 97
2021-02-05 00:00:00 7.9 5 Oeste 8 Oeste 0 -- -- 96
2021-02-04 23:00:00 8.2 2 Norte 6 Noroeste 0 -- -- 95
2021-02-04 22:00:00 8.3 0 Calma 6 Noroeste 0 -- -- 96
2021-02-04 21:00:00 8.4 6 Oeste 17 Oeste 0 -- -- 96
2021-02-04 20:00:00 8.3 10 Oeste 15 Oeste 0 -- -- 96
2021-02-04 19:00:00 8.7 5 Oeste 12 Oeste 0 -- -- 93
2021-02-04 18:00:00 9.3 5 Sur 18 Este 0 -- -- 83
2021-02-04 17:00:00 9.8 8 Este 21 Este 0 -- -- 82
2021-02-04 16:00:00 10.5 3 Sur 6 Sur 0 -- -- 78
2021-02-04 15:00:00 11.1 3 Sudoeste 6 Oeste 0 -- -- 74
2021-02-04 14:00:00 11.2 5 Oeste 10 Sudoeste 0 -- -- 71
2021-02-04 13:00:00 11.5 9 Sudoeste 11 Oeste 0 -- -- 68
2021-02-04 12:00:00 12 6 Sudoeste 9 Sudoeste 0 -- -- 58
2021-02-04 11:00:00 10.4 5 Sudoeste 10 Sudoeste 0 -- -- 64
2021-02-04 10:00:00 9.1 3 Nordeste 8 Sudoeste 0 -- -- 66
2021-02-04 09:00:00 9 0 Calma 13 Sudeste 0 -- -- 65
2021-02-04 08:00:00 9.1 6 Sur 32 Sudoeste 0 -- -- 64
2021-02-04 07:00:00 9.5 8 Este 15 Sudoeste 0 -- -- 62
2021-02-04 06:00:00 10.1 3 Oeste 40 Sudoeste 0 -- -- 60
2021-02-04 05:00:00 12.3 21 Sur 48 Sudoeste 0 -- -- 48
2021-02-04 04:00:00 11.8 25 Sudoeste 41 Sudoeste 0 -- -- 53
2021-02-04 03:00:00 10.1 9 Norte 19 Noroeste 0 -- -- 66
2021-02-04 02:00:00 10.5 6 Noroeste 13 Norte 0 -- -- 63
2021-02-04 01:00:00 11.4 3 Norte 18 Nordeste 0 -- -- 58
2021-02-04 00:00:00 11.3 8 Norte 27 Sudoeste 0 -- -- 58
2021-02-03 23:00:00 9.5 6 Oeste 20 Oeste 0 -- -- 71
2021-02-03 22:00:00 8.4 9 Oeste 12 Oeste 0 -- -- 82
2021-02-03 21:00:00 8.5 7 Este 23 Sudeste 0 -- -- 81
2021-02-03 20:00:00 9 17 Sudeste 33 Sudeste 0 -- -- 80
2021-02-03 19:00:00 9.7 17 Sudeste 37 Este 0 -- -- 76
2021-02-03 18:00:00 11.1 18 Sudeste 46 Este 0 -- -- 71
2021-02-03 17:00:00 14.3 23 Sudeste 37 Sudeste 0 -- -- 63
2021-02-03 16:00:00 17.5 15 Sudoeste 36 Oeste 0 -- -- 38
2021-02-03 15:00:00 17 7 Noroeste 37 Oeste 0 -- -- 39
2021-02-03 14:00:00 17.1 15 Oeste 34 Oeste 0 -- -- 36
2021-02-03 13:00:00 16.6 14 Oeste 47 Oeste 0.2 -- -- 40
2021-02-03 12:00:00 15.1 8 Oeste 30 Oeste 0 -- -- 56
2021-02-03 11:00:00 11.8 5 Este 15 Sudoeste 0 -- -- 85
2021-02-03 10:00:00 9.8 5 Norte 12 Sur 0 -- -- 98
2021-02-03 09:00:00 9.5 3 Noroeste 19 Sudeste 0 -- -- 97
2021-02-03 08:00:00 9.8 11 Sudeste 21 Sudeste 0 -- -- 96
2021-02-03 07:00:00 10.5 5 Sur 21 Sudeste 0 -- -- 92
2021-02-03 06:00:00 11.8 10 Sudoeste 17 Oeste 0.2 -- -- 85
2021-02-03 05:00:00 13.5 8 Oeste 31 Norte 0 -- -- 70
2021-02-03 04:00:00 15.2 10 Sudoeste 40 Sudoeste 0 -- -- 57
2021-02-03 03:00:00 15.7 14 Sudoeste 85 Sudoeste 0 -- -- 53
2021-02-03 02:00:00 15.8 48 Sudoeste 91 Sudoeste 0 -- -- 53
2021-02-03 01:00:00 15.8 41 Sudoeste 104 Oeste 0 -- -- 53
2021-02-03 00:00:00 15.9 42 Sudoeste 91 Sudoeste 0 -- -- 54
2021-02-02 23:00:00 15.5 30 Sudoeste 72 Sudoeste 0 -- -- 56
2021-02-02 22:00:00 15.5 42 Sudoeste 75 Sudoeste 0 -- -- 54
2021-02-02 21:00:00 15.3 34 Sudoeste 67 Sur 0 -- -- 56
2021-02-02 20:00:00 14.4 22 Sur 74 Sur 0.6 -- -- 61
2021-02-02 19:00:00 16.2 17 Noroeste 76 Sudoeste 0 -- -- 53
2021-02-02 18:00:00 17 25 Sudoeste 58 Sudoeste 0 -- -- 51
2021-02-02 17:00:00 17.8 27 Sudoeste 60 Oeste 0 -- -- 50
2021-02-02 16:00:00 16.9 21 Sudoeste 51 Sur 0 -- -- 53
2021-02-02 15:00:00 16 17 Sudoeste 58 Sudoeste 0.2 -- -- 57
2021-02-02 14:00:00 16.3 22 Sudoeste 55 Sudoeste 0 -- -- 58
2021-02-02 13:00:00 17 4 Norte 17 Sudoeste 0 -- -- 60
2021-02-02 12:00:00 16.1 5 Este 20 Este 0 -- -- 59
2021-02-02 11:00:00 13.9 7 Este 17 Sudeste 0 -- -- 69
2021-02-02 10:00:00 12.6 2 Norte 19 Oeste 0 -- -- 70
2021-02-02 09:00:00 12.2 5 Sudoeste 11 Sudoeste 0 -- -- 71
2021-02-02 08:00:00 10.2 4 Noroeste 11 Oeste 0 -- -- 86
2021-02-02 07:00:00 10 4 Sudoeste 10 Sudoeste 0 -- -- 90
2021-02-02 06:00:00 9.5 2 Nordeste 11 Sudeste 0 -- -- 90
2021-02-02 05:00:00 9.6 10 Este 14 Sudeste 0 -- -- 87
2021-02-02 04:00:00 10.5 0 Calma 9 Sudeste 0 -- -- 85
2021-02-02 03:00:00 10.3 4 Sudeste 21 Sudeste 0 -- -- 87
2021-02-02 02:00:00 10.7 4 Sur 10 Sur 0 -- -- 82
2021-02-02 01:00:00 11.5 4 Sudeste 10 Sudeste 0 -- -- 80
2021-02-02 00:00:00 11.6 5 Sudeste 8 Sudeste 0 -- -- 79
2021-02-01 23:00:00 12.4 6 Sur 17 Sudeste 0 -- -- 75
2021-02-01 22:00:00 12.7 13 Sudeste 24 Este 0 -- -- 73
2021-02-01 21:00:00 15.3 3 Oeste 19 Oeste 0 -- -- 60
2021-02-01 20:00:00 15.7 10 Oeste 15 Oeste 0 -- -- 58
2021-02-01 19:00:00 15.8 5 Oeste 24 Noroeste 0 -- -- 54
2021-02-01 18:00:00 15.5 14 Noroeste 27 Noroeste 0 -- -- 54
2021-02-01 17:00:00 15.6 13 Noroeste 28 Noroeste 0 -- -- 53
2021-02-01 16:00:00 15.4 24 Norte 46 Noroeste 0 -- -- 59
2021-02-01 15:00:00 16.9 22 Noroeste 46 Norte 0 -- -- 53
2021-02-01 14:00:00 17.6 24 Noroeste 48 Noroeste 0 -- -- 55
2021-02-01 13:00:00 16.9 31 Noroeste 50 Noroeste 0 -- -- 56
2021-02-01 12:00:00 15.1 37 Noroeste 50 Noroeste 0 -- -- 63
2021-02-01 11:00:00 14.5 30 Noroeste 51 Noroeste 0 -- -- 63
2021-02-01 10:00:00 14.1 33 Noroeste 48 Noroeste 0 -- -- 59
2021-02-01 09:00:00 12.9 32 Noroeste 48 Noroeste 0 -- -- 58
2021-02-01 08:00:00 12.9 31 Noroeste 45 Noroeste 0 -- -- 49
2021-02-01 07:00:00 12.3 30 Noroeste 55 Oeste 0 -- -- 51
2021-02-01 06:00:00 11.3 25 Noroeste 40 Noroeste 0 -- -- 61
2021-02-01 05:00:00 11.6 28 Noroeste 49 Noroeste 0 -- -- 60
2021-02-01 04:00:00 12.5 24 Noroeste 80 Oeste 0 -- -- 56
2021-02-01 03:00:00 13.4 44 Noroeste 73 Oeste 0 -- -- 52
2021-02-01 02:00:00 13.4 39 Noroeste 93 Oeste 0 -- -- 51
2021-02-01 01:00:00 14 50 Oeste 103 Oeste 0 -- -- 49
2021-02-01 00:00:00 14.3 57 Oeste 103 Oeste 0 -- -- 48